sensor_id;sensor_type;location;lat;lon;timestamp;temperature;humidity
19928;DHT22;10126;50.876;4.470;2023-04-10T00:01:18;11.70;99.90
19928;DHT22;10126;50.876;4.470;2023-04-10T00:03:19;11.70;99.90
19928;DHT22;10126;50.876;4.470;2023-04-10T00:05:20;11.70;99.90
19928;DHT22;10126;50.876;4.470;2023-04-10T00:07:20;11.70;99.90
19928;DHT22;10126;50.876;4.470;2023-04-10T00:09:21;11.50;99.90
19928;DHT22;10126;50.876;4.470;2023-04-10T00:11:22;11.60;99.90
19928;DHT22;10126;50.876;4.470;2023-04-10T00:13:22;11.70;99.90
19928;DHT22;10126;50.876;4.470;2023-04-10T00:15:23;11.70;99.90
19928;DHT22;10126;50.876;4.470;2023-04-10T00:17:23;11.50;99.90
19928;DHT22;10126;50.876;4.470;2023-04-10T00:19:24;11.40;99.90
19928;DHT22;10126;50.876;4.470;2023-04-10T00:21:25;11.30;99.90
19928;DHT22;10126;50.876;4.470;2023-04-10T00:23:26;11.30;99.90
19928;DHT22;10126;50.876;4.470;2023-04-10T00:25:27;11.30;99.90
19928;DHT22;10126;50.876;4.470;2023-04-10T00:27:27;11.20;99.90
19928;DHT22;10126;50.876;4.470;2023-04-10T00:29:28;11.30;99.90
19928;DHT22;10126;50.876;4.470;2023-04-10T00:31:29;11.30;99.90
19928;DHT22;10126;50.876;4.470;2023-04-10T00:33:30;11.30;99.90
19928;DHT22;10126;50.876;4.470;2023-04-10T00:35:32;11.30;99.90
19928;DHT22;10126;50.876;4.470;2023-04-10T00:37:32;11.20;99.90
19928;DHT22;10126;50.876;4.470;2023-04-10T00:39:33;11.20;99.90
19928;DHT22;10126;50.876;4.470;2023-04-10T00:41:34;11.20;99.90
19928;DHT22;10126;50.876;4.470;2023-04-10T00:43:35;11.00;99.90
19928;DHT22;10126;50.876;4.470;2023-04-10T00:45:35;11.00;99.90
19928;DHT22;10126;50.876;4.470;2023-04-10T00:47:36;11.00;99.90
19928;DHT22;10126;50.876;4.470;2023-04-10T00:49:37;10.90;99.90
19928;DHT22;10126;50.876;4.470;2023-04-10T00:51:38;10.80;99.90
19928;DHT22;10126;50.876;4.470;2023-04-10T00:53:38;10.80;99.90
19928;DHT22;10126;50.876;4.470;2023-04-10T00:55:39;10.90;99.90
19928;DHT22;10126;50.876;4.470;2023-04-10T00:57:44;10.80;99.90
19928;DHT22;10126;50.876;4.470;2023-04-10T00:59:46;10.80;99.90
19928;DHT22;10126;50.876;4.470;2023-04-10T01:01:48;10.80;99.90
19928;DHT22;10126;50.876;4.470;2023-04-10T01:03:49;10.60;99.90
19928;DHT22;10126;50.876;4.470;2023-04-10T01:05:57;10.60;99.90
19928;DHT22;10126;50.876;4.470;2023-04-10T01:08:21;10.50;99.90
19928;DHT22;10126;50.876;4.470;2023-04-10T01:10:38;10.60;99.90
19928;DHT22;10126;50.876;4.470;2023-04-10T01:13:10;10.60;99.90
19928;DHT22;10126;50.876;4.470;2023-04-10T01:15:22;10.70;99.90
19928;DHT22;10126;50.876;4.470;2023-04-10T01:17:40;10.60;99.90
19928;DHT22;10126;50.876;4.470;2023-04-10T01:20:09;10.70;99.90
19928;DHT22;10126;50.876;4.470;2023-04-10T01:22:12;10.60;99.90
19928;DHT22;10126;50.876;4.470;2023-04-10T01:29:07;10.50;99.90
19928;DHT22;10126;50.876;4.470;2023-04-10T01:31:14;10.50;99.90
19928;DHT22;10126;50.876;4.470;2023-04-10T01:33:18;10.50;99.90
19928;DHT22;10126;50.876;4.470;2023-04-10T01:35:20;10.40;99.90
19928;DHT22;10126;50.876;4.470;2023-04-10T01:37:27;10.40;99.90
19928;DHT22;10126;50.876;4.470;2023-04-10T01:39:29;10.50;99.90
19928;DHT22;10126;50.876;4.470;2023-04-10T01:41:32;10.50;99.90
19928;DHT22;10126;50.876;4.470;2023-04-10T01:43:33;10.50;99.90
19928;DHT22;10126;50.876;4.470;2023-04-10T01:45:35;10.50;99.90
19928;DHT22;10126;50.876;4.470;2023-04-10T01:47:37;10.60;99.90
19928;DHT22;10126;50.876;4.470;2023-04-10T01:49:39;10.60;99.90
19928;DHT22;10126;50.876;4.470;2023-04-10T01:51:44;10.70;99.90
19928;DHT22;10126;50.876;4.470;2023-04-10T01:53:46;10.70;99.90
19928;DHT22;10126;50.876;4.470;2023-04-10T01:55:48;10.70;99.90
19928;DHT22;10126;50.876;4.470;2023-04-10T01:57:49;10.70;99.90
19928;DHT22;10126;50.876;4.470;2023-04-10T01:59:51;10.60;99.90
19928;DHT22;10126;50.876;4.470;2023-04-10T02:01:58;10.70;99.90
19928;DHT22;10126;50.876;4.470;2023-04-10T02:03:59;10.70;99.90
19928;DHT22;10126;50.876;4.470;2023-04-10T02:08:28;10.70;99.90
19928;DHT22;10126;50.876;4.470;2023-04-10T02:10:43;10.60;99.90
19928;DHT22;10126;50.876;4.470;2023-04-10T02:12:52;10.50;99.90
19928;DHT22;10126;50.876;4.470;2023-04-10T02:14:59;10.50;99.90
19928;DHT22;10126;50.876;4.470;2023-04-10T02:17:01;10.50;99.90
19928;DHT22;10126;50.876;4.470;2023-04-10T02:19:03;10.40;99.90
19928;DHT22;10126;50.876;4.470;2023-04-10T02:21:06;10.40;99.90
19928;DHT22;10126;50.876;4.470;2023-04-10T02:23:06;10.40;99.90
19928;DHT22;10126;50.876;4.470;2023-04-10T02:25:09;10.40;99.90
19928;DHT22;10126;50.876;4.470;2023-04-10T02:27:09;10.40;99.90
19928;DHT22;10126;50.876;4.470;2023-04-10T02:29:10;10.50;99.90
19928;DHT22;10126;50.876;4.470;2023-04-10T02:31:10;10.60;99.90
19928;DHT22;10126;50.876;4.470;2023-04-10T02:33:11;10.70;99.90
19928;DHT22;10126;50.876;4.470;2023-04-10T02:35:12;10.70;99.90
19928;DHT22;10126;50.876;4.470;2023-04-10T02:37:12;10.70;99.90
19928;DHT22;10126;50.876;4.470;2023-04-10T02:39:13;10.70;99.90
19928;DHT22;10126;50.876;4.470;2023-04-10T02:41:14;10.70;99.90
19928;DHT22;10126;50.876;4.470;2023-04-10T02:43:14;10.60;99.90
19928;DHT22;10126;50.876;4.470;2023-04-10T02:45:15;10.70;99.90
19928;DHT22;10126;50.876;4.470;2023-04-10T02:47:16;10.50;99.90
19928;DHT22;10126;50.876;4.470;2023-04-10T02:49:17;10.50;99.90
19928;DHT22;10126;50.876;4.470;2023-04-10T02:51:18;10.60;99.90
19928;DHT22;10126;50.876;4.470;2023-04-10T02:53:19;10.60;99.90
19928;DHT22;10126;50.876;4.470;2023-04-10T02:55:22;10.60;99.90
19928;DHT22;10126;50.876;4.470;2023-04-10T02:57:23;10.50;99.90
19928;DHT22;10126;50.876;4.470;2023-04-10T02:59:24;10.40;99.90
19928;DHT22;10126;50.876;4.470;2023-04-10T03:01:26;10.30;99.90
19928;DHT22;10126;50.876;4.470;2023-04-10T03:03:26;10.50;99.90
19928;DHT22;10126;50.876;4.470;2023-04-10T03:05:27;10.60;99.90
19928;DHT22;10126;50.876;4.470;2023-04-10T03:07:28;10.70;99.90
19928;DHT22;10126;50.876;4.470;2023-04-10T03:09:28;10.60;99.90
19928;DHT22;10126;50.876;4.470;2023-04-10T03:11:29;10.60;99.90
19928;DHT22;10126;50.876;4.470;2023-04-10T03:13:30;10.60;99.90
19928;DHT22;10126;50.876;4.470;2023-04-10T03:15:31;10.50;99.90
19928;DHT22;10126;50.876;4.470;2023-04-10T03:17:33;10.70;99.90
19928;DHT22;10126;50.876;4.470;2023-04-10T03:19:34;10.60;99.90
19928;DHT22;10126;50.876;4.470;2023-04-10T03:21:34;10.70;99.90
19928;DHT22;10126;50.876;4.470;2023-04-10T03:23:35;10.70;99.90
19928;DHT22;10126;50.876;4.470;2023-04-10T03:25:36;10.70;99.90
19928;DHT22;10126;50.876;4.470;2023-04-10T03:27:37;10.60;99.90
19928;DHT22;10126;50.876;4.470;2023-04-10T03:29:38;10.60;99.90
19928;DHT22;10126;50.876;4.470;2023-04-10T03:31:38;10.50;99.90
19928;DHT22;10126;50.876;4.470;2023-04-10T03:33:39;10.40;99.90
19928;DHT22;10126;50.876;4.470;2023-04-10T03:35:40;10.30;99.90
19928;DHT22;10126;50.876;4.470;2023-04-10T03:37:40;10.20;99.90
19928;DHT22;10126;50.876;4.470;2023-04-10T03:39:41;10.30;99.90
19928;DHT22;10126;50.876;4.470;2023-04-10T03:41:42;10.40;99.90
19928;DHT22;10126;50.876;4.470;2023-04-10T03:43:42;10.40;99.90
19928;DHT22;10126;50.876;4.470;2023-04-10T03:45:43;10.40;99.90
19928;DHT22;10126;50.876;4.470;2023-04-10T03:47:44;10.50;99.90
19928;DHT22;10126;50.876;4.470;2023-04-10T03:49:44;10.50;99.90
19928;DHT22;10126;50.876;4.470;2023-04-10T03:51:45;10.50;99.90
19928;DHT22;10126;50.876;4.470;2023-04-10T03:53:46;10.60;99.90
19928;DHT22;10126;50.876;4.470;2023-04-10T03:55:46;10.50;99.90
19928;DHT22;10126;50.876;4.470;2023-04-10T03:57:47;10.50;99.90
19928;DHT22;10126;50.876;4.470;2023-04-10T03:59:48;10.50;99.90
19928;DHT22;10126;50.876;4.470;2023-04-10T04:01:49;10.30;99.90
19928;DHT22;10126;50.876;4.470;2023-04-10T04:03:49;10.20;99.90
19928;DHT22;10126;50.876;4.470;2023-04-10T04:05:50;10.20;99.90
19928;DHT22;10126;50.876;4.470;2023-04-10T04:07:51;10.30;99.90
19928;DHT22;10126;50.876;4.470;2023-04-10T04:09:52;10.30;99.90
19928;DHT22;10126;50.876;4.470;2023-04-10T04:11:54;10.40;99.90
19928;DHT22;10126;50.876;4.470;2023-04-10T04:13:56;10.30;99.90
19928;DHT22;10126;50.876;4.470;2023-04-10T04:15:59;10.30;99.90
19928;DHT22;10126;50.876;4.470;2023-04-10T04:18:00;10.20;99.90
19928;DHT22;10126;50.876;4.470;2023-04-10T04:20:00;10.20;99.90
19928;DHT22;10126;50.876;4.470;2023-04-10T04:22:01;10.20;99.90
19928;DHT22;10126;50.876;4.470;2023-04-10T04:24:02;10.10;99.90
19928;DHT22;10126;50.876;4.470;2023-04-10T04:26:03;10.10;99.90
19928;DHT22;10126;50.876;4.470;2023-04-10T04:28:03;10.10;99.90
19928;DHT22;10126;50.876;4.470;2023-04-10T04:30:14;10.20;99.90
19928;DHT22;10126;50.876;4.470;2023-04-10T04:32:15;10.10;99.90
19928;DHT22;10126;50.876;4.470;2023-04-10T04:34:21;10.10;99.90
19928;DHT22;10126;50.876;4.470;2023-04-10T04:36:22;10.10;99.90
19928;DHT22;10126;50.876;4.470;2023-04-10T04:38:23;10.10;99.90
19928;DHT22;10126;50.876;4.470;2023-04-10T04:40:23;10.10;99.90
19928;DHT22;10126;50.876;4.470;2023-04-10T04:42:24;10.00;99.90
19928;DHT22;10126;50.876;4.470;2023-04-10T04:44:24;10.10;99.90
19928;DHT22;10126;50.876;4.470;2023-04-10T04:46:25;10.00;99.90
19928;DHT22;10126;50.876;4.470;2023-04-10T04:48:26;10.10;99.90
19928;DHT22;10126;50.876;4.470;2023-04-10T04:50:26;10.10;99.90
19928;DHT22;10126;50.876;4.470;2023-04-10T04:52:30;10.10;99.90
19928;DHT22;10126;50.876;4.470;2023-04-10T04:54:31;10.10;99.90
19928;DHT22;10126;50.876;4.470;2023-04-10T04:56:32;10.10;99.90
19928;DHT22;10126;50.876;4.470;2023-04-10T04:58:32;10.20;99.90
19928;DHT22;10126;50.876;4.470;2023-04-10T05:00:34;10.20;99.90
19928;DHT22;10126;50.876;4.470;2023-04-10T05:02:35;10.30;99.90
19928;DHT22;10126;50.876;4.470;2023-04-10T05:04:35;10.30;99.90
19928;DHT22;10126;50.876;4.470;2023-04-10T05:06:36;10.30;99.90
19928;DHT22;10126;50.876;4.470;2023-04-10T05:08:37;10.30;99.90
19928;DHT22;10126;50.876;4.470;2023-04-10T05:10:37;10.30;99.90
19928;DHT22;10126;50.876;4.470;2023-04-10T05:12:38;10.40;99.90
19928;DHT22;10126;50.876;4.470;2023-04-10T05:14:41;10.50;99.90
19928;DHT22;10126;50.876;4.470;2023-04-10T05:16:41;10.40;99.90
19928;DHT22;10126;50.876;4.470;2023-04-10T05:18:42;10.40;99.90
19928;DHT22;10126;50.876;4.470;2023-04-10T05:20:51;10.40;99.90
19928;DHT22;10126;50.876;4.470;2023-04-10T05:22:52;10.30;99.90
19928;DHT22;10126;50.876;4.470;2023-04-10T05:24:53;10.30;99.90
19928;DHT22;10126;50.876;4.470;2023-04-10T05:26:54;10.40;99.90
19928;DHT22;10126;50.876;4.470;2023-04-10T05:28:55;10.50;99.90
19928;DHT22;10126;50.876;4.470;2023-04-10T05:31:01;10.50;99.90
19928;DHT22;10126;50.876;4.470;2023-04-10T05:33:04;10.60;99.90
19928;DHT22;10126;50.876;4.470;2023-04-10T05:35:05;10.50;99.90
19928;DHT22;10126;50.876;4.470;2023-04-10T05:37:06;10.50;99.90
19928;DHT22;10126;50.876;4.470;2023-04-10T05:39:08;10.60;99.90
19928;DHT22;10126;50.876;4.470;2023-04-10T05:41:08;10.70;99.90
19928;DHT22;10126;50.876;4.470;2023-04-10T05:43:09;10.70;99.90
19928;DHT22;10126;50.876;4.470;2023-04-10T05:45:10;10.80;99.90
19928;DHT22;10126;50.876;4.470;2023-04-10T05:47:19;11.00;99.90
19928;DHT22;10126;50.876;4.470;2023-04-10T05:49:52;11.00;99.90
19928;DHT22;10126;50.876;4.470;2023-04-10T05:51:53;11.00;99.90
19928;DHT22;10126;50.876;4.470;2023-04-10T05:53:53;11.10;99.90
19928;DHT22;10126;50.876;4.470;2023-04-10T05:55:54;11.00;99.90
19928;DHT22;10126;50.876;4.470;2023-04-10T05:57:56;11.00;99.90
19928;DHT22;10126;50.876;4.470;2023-04-10T05:59:56;10.90;99.90
19928;DHT22;10126;50.876;4.470;2023-04-10T06:02:00;10.90;99.90
19928;DHT22;10126;50.876;4.470;2023-04-10T06:04:01;11.00;99.90
19928;DHT22;10126;50.876;4.470;2023-04-10T06:06:02;11.00;99.90
19928;DHT22;10126;50.876;4.470;2023-04-10T06:08:03;11.10;99.90
19928;DHT22;10126;50.876;4.470;2023-04-10T06:10:09;11.30;99.90
19928;DHT22;10126;50.876;4.470;2023-04-10T06:12:10;11.20;99.90
19928;DHT22;10126;50.876;4.470;2023-04-10T06:14:11;11.40;99.90
19928;DHT22;10126;50.876;4.470;2023-04-10T06:16:13;11.40;99.90
19928;DHT22;10126;50.876;4.470;2023-04-10T06:18:15;11.40;99.90
19928;DHT22;10126;50.876;4.470;2023-04-10T06:20:16;11.10;99.90
19928;DHT22;10126;50.876;4.470;2023-04-10T06:22:16;11.20;99.90
19928;DHT22;10126;50.876;4.470;2023-04-10T06:24:17;11.30;99.90
19928;DHT22;10126;50.876;4.470;2023-04-10T06:26:18;11.40;99.90
19928;DHT22;10126;50.876;4.470;2023-04-10T06:28:18;11.40;99.90
19928;DHT22;10126;50.876;4.470;2023-04-10T06:30:19;11.30;99.90
19928;DHT22;10126;50.876;4.470;2023-04-10T06:32:20;11.30;99.90
19928;DHT22;10126;50.876;4.470;2023-04-10T06:34:21;11.20;99.90
19928;DHT22;10126;50.876;4.470;2023-04-10T06:36:21;11.30;99.90
19928;DHT22;10126;50.876;4.470;2023-04-10T06:38:22;11.30;99.90
19928;DHT22;10126;50.876;4.470;2023-04-10T06:40:22;11.40;99.90
19928;DHT22;10126;50.876;4.470;2023-04-10T06:42:23;11.50;99.90
19928;DHT22;10126;50.876;4.470;2023-04-10T06:44:24;11.70;99.90
19928;DHT22;10126;50.876;4.470;2023-04-10T06:46:26;11.60;99.90
19928;DHT22;10126;50.876;4.470;2023-04-10T06:48:27;11.70;99.90
19928;DHT22;10126;50.876;4.470;2023-04-10T06:50:27;11.70;99.90
19928;DHT22;10126;50.876;4.470;2023-04-10T06:52:28;11.70;99.90
19928;DHT22;10126;50.876;4.470;2023-04-10T06:54:29;11.70;99.90
19928;DHT22;10126;50.876;4.470;2023-04-10T06:56:30;11.80;99.90
19928;DHT22;10126;50.876;4.470;2023-04-10T06:58:30;11.90;99.90
19928;DHT22;10126;50.876;4.470;2023-04-10T07:00:31;11.90;99.90
19928;DHT22;10126;50.876;4.470;2023-04-10T07:02:32;11.80;99.90
19928;DHT22;10126;50.876;4.470;2023-04-10T07:04:32;11.70;99.90
19928;DHT22;10126;50.876;4.470;2023-04-10T07:06:36;11.70;99.90
19928;DHT22;10126;50.876;4.470;2023-04-10T07:08:36;11.80;99.90
19928;DHT22;10126;50.876;4.470;2023-04-10T07:10:37;11.90;99.90
19928;DHT22;10126;50.876;4.470;2023-04-10T07:12:38;12.00;99.90
19928;DHT22;10126;50.876;4.470;2023-04-10T07:14:38;12.20;99.90
19928;DHT22;10126;50.876;4.470;2023-04-10T07:16:39;12.30;99.90
19928;DHT22;10126;50.876;4.470;2023-04-10T07:18:40;12.40;99.90
19928;DHT22;10126;50.876;4.470;2023-04-10T07:20:40;12.50;99.90
19928;DHT22;10126;50.876;4.470;2023-04-10T07:22:41;12.60;99.90
19928;DHT22;10126;50.876;4.470;2023-04-10T07:24:41;12.70;99.90
19928;DHT22;10126;50.876;4.470;2023-04-10T07:26:45;12.70;99.90
19928;DHT22;10126;50.876;4.470;2023-04-10T07:28:46;12.80;99.90
19928;DHT22;10126;50.876;4.470;2023-04-10T07:30:46;12.90;99.90
19928;DHT22;10126;50.876;4.470;2023-04-10T07:32:47;13.10;99.90
19928;DHT22;10126;50.876;4.470;2023-04-10T07:34:48;13.00;99.90
19928;DHT22;10126;50.876;4.470;2023-04-10T07:36:48;13.10;99.90
19928;DHT22;10126;50.876;4.470;2023-04-10T07:38:49;13.30;99.90
19928;DHT22;10126;50.876;4.470;2023-04-10T07:40:55;13.40;99.90
19928;DHT22;10126;50.876;4.470;2023-04-10T07:42:56;13.60;99.90
19928;DHT22;10126;50.876;4.470;2023-04-10T07:44:57;13.70;99.90
19928;DHT22;10126;50.876;4.470;2023-04-10T07:46:58;13.70;99.90
19928;DHT22;10126;50.876;4.470;2023-04-10T07:48:58;13.90;99.90
19928;DHT22;10126;50.876;4.470;2023-04-10T07:50:59;13.90;99.90
19928;DHT22;10126;50.876;4.470;2023-04-10T07:53:07;13.90;99.90
19928;DHT22;10126;50.876;4.470;2023-04-10T07:55:08;13.90;99.90
19928;DHT22;10126;50.876;4.470;2023-04-10T07:57:11;14.00;99.90
19928;DHT22;10126;50.876;4.470;2023-04-10T07:59:12;13.90;99.90
19928;DHT22;10126;50.876;4.470;2023-04-10T08:01:13;14.00;99.90
19928;DHT22;10126;50.876;4.470;2023-04-10T08:03:14;14.00;99.90
19928;DHT22;10126;50.876;4.470;2023-04-10T08:05:15;14.00;99.90
19928;DHT22;10126;50.876;4.470;2023-04-10T08:07:21;14.00;99.90
19928;DHT22;10126;50.876;4.470;2023-04-10T08:09:22;13.90;99.90
19928;DHT22;10126;50.876;4.470;2023-04-10T08:11:38;13.80;99.90
19928;DHT22;10126;50.876;4.470;2023-04-10T08:14:01;13.90;99.90
19928;DHT22;10126;50.876;4.470;2023-04-10T08:16:02;13.90;99.90
19928;DHT22;10126;50.876;4.470;2023-04-10T08:18:05;14.10;99.90
19928;DHT22;10126;50.876;4.470;2023-04-10T08:20:07;14.30;99.90
19928;DHT22;10126;50.876;4.470;2023-04-10T08:22:07;14.30;99.90
19928;DHT22;10126;50.876;4.470;2023-04-10T08:24:08;14.40;99.90
19928;DHT22;10126;50.876;4.470;2023-04-10T08:26:09;14.60;99.90
19928;DHT22;10126;50.876;4.470;2023-04-10T08:28:15;14.90;99.90
19928;DHT22;10126;50.876;4.470;2023-04-10T08:30:16;14.90;99.90
19928;DHT22;10126;50.876;4.470;2023-04-10T08:32:17;15.00;99.90
19928;DHT22;10126;50.876;4.470;2023-04-10T08:34:23;15.00;99.90
19928;DHT22;10126;50.876;4.470;2023-04-10T08:36:23;15.20;99.90
19928;DHT22;10126;50.876;4.470;2023-04-10T08:38:24;15.00;99.90
19928;DHT22;10126;50.876;4.470;2023-04-10T08:40:27;14.90;99.90
19928;DHT22;10126;50.876;4.470;2023-04-10T08:42:30;15.00;99.90
19928;DHT22;10126;50.876;4.470;2023-04-10T08:44:34;15.10;99.90
19928;DHT22;10126;50.876;4.470;2023-04-10T08:46:42;15.30;99.90
19928;DHT22;10126;50.876;4.470;2023-04-10T08:49:03;15.40;99.90
19928;DHT22;10126;50.876;4.470;2023-04-10T08:51:04;15.60;99.90
19928;DHT22;10126;50.876;4.470;2023-04-10T08:53:11;15.70;99.90
19928;DHT22;10126;50.876;4.470;2023-04-10T08:55:13;15.90;99.90
19928;DHT22;10126;50.876;4.470;2023-04-10T08:57:15;15.90;99.90
19928;DHT22;10126;50.876;4.470;2023-04-10T08:59:20;15.90;99.90
19928;DHT22;10126;50.876;4.470;2023-04-10T09:01:21;15.80;99.90
19928;DHT22;10126;50.876;4.470;2023-04-10T09:03:23;15.80;99.90
19928;DHT22;10126;50.876;4.470;2023-04-10T09:05:26;15.70;99.90
19928;DHT22;10126;50.876;4.470;2023-04-10T09:07:36;15.30;99.90
19928;DHT22;10126;50.876;4.470;2023-04-10T09:09:36;15.50;99.90
19928;DHT22;10126;50.876;4.470;2023-04-10T09:11:55;15.70;99.90
19928;DHT22;10126;50.876;4.470;2023-04-10T09:13:56;15.80;99.90
19928;DHT22;10126;50.876;4.470;2023-04-10T09:15:58;15.70;99.90
19928;DHT22;10126;50.876;4.470;2023-04-10T09:18:02;15.90;99.90
19928;DHT22;10126;50.876;4.470;2023-04-10T09:20:20;16.20;99.90
19928;DHT22;10126;50.876;4.470;2023-04-10T09:22:39;16.40;99.90
19928;DHT22;10126;50.876;4.470;2023-04-10T09:24:44;16.50;99.90
19928;DHT22;10126;50.876;4.470;2023-04-10T09:26:45;16.40;99.90
19928;DHT22;10126;50.876;4.470;2023-04-10T09:29:00;16.30;99.90
19928;DHT22;10126;50.876;4.470;2023-04-10T09:31:01;16.30;99.90
19928;DHT22;10126;50.876;4.470;2023-04-10T09:35:35;16.40;99.90
19928;DHT22;10126;50.876;4.470;2023-04-10T09:37:37;16.40;99.90
19928;DHT22;10126;50.876;4.470;2023-04-10T09:39:38;16.50;99.90
19928;DHT22;10126;50.876;4.470;2023-04-10T09:41:50;16.40;99.90
19928;DHT22;10126;50.876;4.470;2023-04-10T09:44:05;16.50;99.90
19928;DHT22;10126;50.876;4.470;2023-04-10T09:46:06;16.50;99.90
19928;DHT22;10126;50.876;4.470;2023-04-10T09:48:07;16.60;99.90
19928;DHT22;10126;50.876;4.470;2023-04-10T09:50:08;16.30;99.90
19928;DHT22;10126;50.876;4.470;2023-04-10T09:52:17;16.30;99.90
19928;DHT22;10126;50.876;4.470;2023-04-10T09:54:34;16.10;99.90
19928;DHT22;10126;50.876;4.470;2023-04-10T09:56:37;16.30;99.90
19928;DHT22;10126;50.876;4.470;2023-04-10T09:58:42;16.50;99.90
19928;DHT22;10126;50.876;4.470;2023-04-10T10:00:45;16.80;99.90
19928;DHT22;10126;50.876;4.470;2023-04-10T10:02:47;16.90;99.90
19928;DHT22;10126;50.876;4.470;2023-04-10T10:04:49;17.10;99.90
19928;DHT22;10126;50.876;4.470;2023-04-10T10:06:50;17.20;99.90
19928;DHT22;10126;50.876;4.470;2023-04-10T10:08:51;17.50;99.90
19928;DHT22;10126;50.876;4.470;2023-04-10T10:10:53;17.50;99.90
19928;DHT22;10126;50.876;4.470;2023-04-10T10:12:59;17.60;99.90
19928;DHT22;10126;50.876;4.470;2023-04-10T10:17:10;18.80;99.90
19928;DHT22;10126;50.876;4.470;2023-04-10T10:19:37;19.20;99.90
19928;DHT22;10126;50.876;4.470;2023-04-10T10:21:43;19.70;99.90
19928;DHT22;10126;50.876;4.470;2023-04-10T10:23:44;19.80;99.90
19928;DHT22;10126;50.876;4.470;2023-04-10T10:25:48;19.80;99.90
19928;DHT22;10126;50.876;4.470;2023-04-10T10:27:51;19.60;99.90
19928;DHT22;10126;50.876;4.470;2023-04-10T10:29:53;19.40;99.90
19928;DHT22;10126;50.876;4.470;2023-04-10T10:31:55;19.70;99.90
19928;DHT22;10126;50.876;4.470;2023-04-10T10:33:56;20.20;99.90
19928;DHT22;10126;50.876;4.470;2023-04-10T10:35:59;20.20;99.90
19928;DHT22;10126;50.876;4.470;2023-04-10T10:38:01;20.20;99.90
19928;DHT22;10126;50.876;4.470;2023-04-10T10:42:33;19.80;99.90
19928;DHT22;10126;50.876;4.470;2023-04-10T10:45:02;20.00;99.90
19928;DHT22;10126;50.876;4.470;2023-04-10T10:47:21;20.20;99.90
19928;DHT22;10126;50.876;4.470;2023-04-10T10:52:10;19.60;99.90
19928;DHT22;10126;50.876;4.470;2023-04-10T10:54:30;19.50;99.90
19928;DHT22;10126;50.876;4.470;2023-04-10T10:56:35;19.40;99.90
19928;DHT22;10126;50.876;4.470;2023-04-10T10:58:48;19.40;99.90
19928;DHT22;10126;50.876;4.470;2023-04-10T11:09:58;18.90;99.90
19928;DHT22;10126;50.876;4.470;2023-04-10T11:11:58;18.90;99.90
19928;DHT22;10126;50.876;4.470;2023-04-10T11:16:01;19.00;99.90
19928;DHT22;10126;50.876;4.470;2023-04-10T11:18:02;19.00;99.90
19928;DHT22;10126;50.876;4.470;2023-04-10T11:20:03;18.80;99.90
19928;DHT22;10126;50.876;4.470;2023-04-10T11:22:06;18.60;99.90
19928;DHT22;10126;50.876;4.470;2023-04-10T11:24:07;18.70;99.90
19928;DHT22;10126;50.876;4.470;2023-04-10T11:26:08;18.70;99.90
19928;DHT22;10126;50.876;4.470;2023-04-10T11:28:34;18.50;99.90
19928;DHT22;10126;50.876;4.470;2023-04-10T11:30:35;18.50;99.90
19928;DHT22;10126;50.876;4.470;2023-04-10T11:32:42;18.50;99.90
19928;DHT22;10126;50.876;4.470;2023-04-10T11:34:44;18.50;99.90
19928;DHT22;10126;50.876;4.470;2023-04-10T11:36:45;18.50;99.90
19928;DHT22;10126;50.876;4.470;2023-04-10T11:38:58;18.60;99.90
19928;DHT22;10126;50.876;4.470;2023-04-10T11:41:03;19.00;99.90
19928;DHT22;10126;50.876;4.470;2023-04-10T11:43:12;19.20;99.90
19928;DHT22;10126;50.876;4.470;2023-04-10T11:45:26;19.30;99.90
19928;DHT22;10126;50.876;4.470;2023-04-10T11:47:27;19.40;99.90
19928;DHT22;10126;50.876;4.470;2023-04-10T11:49:32;19.20;99.90
19928;DHT22;10126;50.876;4.470;2023-04-10T11:51:34;19.10;99.90
19928;DHT22;10126;50.876;4.470;2023-04-10T11:53:35;19.00;99.90
19928;DHT22;10126;50.876;4.470;2023-04-10T11:55:36;18.80;99.90
19928;DHT22;10126;50.876;4.470;2023-04-10T11:57:37;18.90;99.90
19928;DHT22;10126;50.876;4.470;2023-04-10T11:59:38;18.60;99.90
19928;DHT22;10126;50.876;4.470;2023-04-10T12:01:39;18.50;99.90
19928;DHT22;10126;50.876;4.470;2023-04-10T12:03:41;18.50;99.90
19928;DHT22;10126;50.876;4.470;2023-04-10T12:05:46;18.60;99.90
19928;DHT22;10126;50.876;4.470;2023-04-10T12:07:48;18.80;99.90
19928;DHT22;10126;50.876;4.470;2023-04-10T12:09:58;18.80;99.90
19928;DHT22;10126;50.876;4.470;2023-04-10T12:12:00;18.50;99.90
19928;DHT22;10126;50.876;4.470;2023-04-10T12:14:02;18.40;99.90
19928;DHT22;10126;50.876;4.470;2023-04-10T12:16:06;18.50;99.90
19928;DHT22;10126;50.876;4.470;2023-04-10T12:18:07;18.50;99.90
19928;DHT22;10126;50.876;4.470;2023-04-10T12:20:08;18.30;99.90
19928;DHT22;10126;50.876;4.470;2023-04-10T12:22:10;18.40;99.90
19928;DHT22;10126;50.876;4.470;2023-04-10T12:24:12;18.50;99.90
19928;DHT22;10126;50.876;4.470;2023-04-10T12:26:15;18.60;99.90
19928;DHT22;10126;50.876;4.470;2023-04-10T12:28:17;18.40;99.90
19928;DHT22;10126;50.876;4.470;2023-04-10T12:30:18;18.40;99.90
19928;DHT22;10126;50.876;4.470;2023-04-10T12:32:19;18.20;99.90
19928;DHT22;10126;50.876;4.470;2023-04-10T12:34:20;18.20;99.90
19928;DHT22;10126;50.876;4.470;2023-04-10T12:36:21;18.20;99.90
19928;DHT22;10126;50.876;4.470;2023-04-10T12:38:35;18.30;99.90
19928;DHT22;10126;50.876;4.470;2023-04-10T12:40:36;18.40;99.90
19928;DHT22;10126;50.876;4.470;2023-04-10T12:42:40;18.40;99.90
19928;DHT22;10126;50.876;4.470;2023-04-10T12:45:00;18.40;99.90
19928;DHT22;10126;50.876;4.470;2023-04-10T12:47:01;18.50;99.90
19928;DHT22;10126;50.876;4.470;2023-04-10T12:49:15;18.60;99.90
19928;DHT22;10126;50.876;4.470;2023-04-10T12:51:16;18.60;99.90
19928;DHT22;10126;50.876;4.470;2023-04-10T12:53:16;18.70;99.90
19928;DHT22;10126;50.876;4.470;2023-04-10T12:55:18;19.00;99.90
19928;DHT22;10126;50.876;4.470;2023-04-10T12:57:26;19.00;99.90
19928;DHT22;10126;50.876;4.470;2023-04-10T12:59:28;19.00;99.90
19928;DHT22;10126;50.876;4.470;2023-04-10T13:01:29;19.10;99.90
19928;DHT22;10126;50.876;4.470;2023-04-10T13:03:32;19.10;99.90
19928;DHT22;10126;50.876;4.470;2023-04-10T13:05:33;19.00;99.90
19928;DHT22;10126;50.876;4.470;2023-04-10T13:07:34;18.80;99.90
19928;DHT22;10126;50.876;4.470;2023-04-10T13:09:38;18.70;99.90
19928;DHT22;10126;50.876;4.470;2023-04-10T13:11:42;18.80;99.90
19928;DHT22;10126;50.876;4.470;2023-04-10T13:13:45;18.60;99.90
19928;DHT22;10126;50.876;4.470;2023-04-10T13:15:47;18.50;99.90
19928;DHT22;10126;50.876;4.470;2023-04-10T13:17:48;18.50;99.90
19928;DHT22;10126;50.876;4.470;2023-04-10T13:19:49;18.60;99.90
19928;DHT22;10126;50.876;4.470;2023-04-10T13:21:50;18.60;99.90
19928;DHT22;10126;50.876;4.470;2023-04-10T13:23:51;18.70;99.90
19928;DHT22;10126;50.876;4.470;2023-04-10T13:25:52;18.60;99.90